Knoxville, IL

11:39 PM CST on December 04, 2016 (GMT -0600)
KILKNOXV2 | | Change Station

Elev 773 ft 40.91 °N, 90.29 °W | Updated 11 minutes ago

Overcast
Overcast
32.7 °F
Feels Like 28 °F
N
5.0
Wind Variable Wind from West
Gusts 9.0 mph

Today
High -- | Low -- °F
--% Chance of Precip.
Yesterday
High -- | Low -- °F
Precip. -- in
Pressure 29.98 in
Visibility 10.0 miles
Clouds Overcast 700 ft
Windchill 28 °F
Dew Point 32 °F
Humidity 95%
Rainfall 0.04 in
Snow Depth Not available.
7:09 AM 4:33 PM
Waxing Crescent, 28% visible
METAR KGBG 050535Z AUTO 24006KT 10SM OVC007 00/00 A2998 RMK AO2 T00030000
Pressure 29.98 in
Visibility 10.0 miles
Clouds Overcast 700 ft
Windchill 28 °F
Dew Point 32 °F
Humidity 95%
Rainfall 0.04 in
Snow Depth Not available.
7:09 AM 4:33 PM
Waxing Crescent, 28% visible
METAR KGBG 050535Z AUTO 24006KT 10SM OVC007 00/00 A2998 RMK AO2 T00030000

10-Day Weather Forecast

Almanac

Astronomy

Dec. 04, 2016 Rise Set
Actual Time
Civil Twilight
Nautical Twilight
Astronomical Twilight
Moon
Length of Visible Light
Length of Day
Tomorrow will be .
, % of the Moon is Illuminated

Today's Extremes

State Highs State Lows

Community

WunderPhotos

Upload Photos

1,955,765 photos uploaded!

WunderBlog® & News

Nearby

Air Quality

  Air Quality AQ Index Pollutant
Not available.

Snow Depth

Station Depth Elevation

Earthquake Activity

City Distance Mag. Time & Date
Minimum magnitude displayed is 2.5.

Coastal Water Temperatures

Place Temperature

Stations

Nearby Weather Stations

Station Location Temp. Windchill Dew Point Humidity Wind Precip. Elev Updated Type
                   

Watches & Warnings

There are currently no watches in effect.